Time;durP1;ratioP1;P1;durP2;ratioP2;P2;SDS_P1;SDS_P2;PMS_P1;PMS_P2;Temp;Humidity;BMP_temperature;BMP_pressure;BME280_temperature;BME280_humidity;BME280_pressure;Samples;Min_cycle;Max_cycle;Signal;HPM_P1;HPM_P2
2023/02/13 00:01:24;;;;;;;97.30;33.90;;;;;;;-4.25;85.20;101135.25;106021;1289;25512;-77
2023/02/13 00:03:53;;;;;;;92.00;32.90;;;;;;;-4.25;85.45;101130.98;105922;1295;25245;-77
2023/02/13 00:06:22;;;;;;;81.80;32.30;;;;;;;-4.26;85.16;101138.36;105965;1295;22804;-77
2023/02/13 00:08:52;;;;;;;89.20;32.80;;;;;;;-4.28;84.47;101144.02;105966;1295;22552;-77
2023/02/13 00:11:20;;;;;;;83.70;30.90;;;;;;;-4.31;84.08;101144.50;105725;1295;24275;-77
2023/02/13 00:13:49;;;;;;;78.50;29.40;;;;;;;-4.35;83.34;101141.98;105981;1296;22680;-77
2023/02/13 00:16:17;;;;;;;78.30;29.30;;;;;;;-4.35;83.09;101139.11;105851;1295;23810;-77
2023/02/13 00:18:45;;;;;;;80.30;30.00;;;;;;;-4.37;84.10;101141.39;105951;1296;23519;-77
2023/02/13 00:21:14;;;;;;;80.00;30.60;;;;;;;-4.38;83.58;101152.83;107303;1289;25614;-81
2023/02/13 00:23:42;;;;;;;51.80;23.70;;;;;;;-4.39;85.12;101155.12;107738;1293;24247;-78
2023/02/13 00:26:16;;;;;;;75.90;27.70;;;;;;;-4.39;85.13;101155.96;106972;1290;22653;-77
2023/02/13 00:28:46;;;;;;;84.90;30.60;;;;;;;-4.38;85.24;101157.38;105984;1296;25459;-77
2023/02/13 00:31:20;;;;;;;79.40;30.80;;;;;;;-4.36;84.77;101164.64;106000;1289;25481;-78
2023/02/13 00:33:49;;;;;;;93.20;32.60;;;;;;;-4.33;84.86;101161.61;105977;1296;23724;-77
2023/02/13 00:36:19;;;;;;;83.50;32.10;;;;;;;-4.30;84.96;101162.70;105944;1296;23393;-79
2023/02/13 00:38:49;;;;;;;72.40;28.50;;;;;;;-4.26;85.23;101157.69;105903;1295;22565;-77
2023/02/13 00:41:17;;;;;;;87.60;30.50;;;;;;;-4.21;85.72;101154.64;105876;1295;22599;-76
2023/02/13 00:43:46;;;;;;;80.20;30.40;;;;;;;-4.16;85.51;101147.13;105922;1289;22602;-76
2023/02/13 00:46:16;;;;;;;90.70;30.50;;;;;;;-4.19;83.40;101150.23;105930;1295;22556;-77
2023/02/13 00:48:45;;;;;;;79.20;28.20;;;;;;;-4.23;83.70;101152.98;105936;1297;25265;-78
2023/02/13 00:51:13;;;;;;;77.10;28.20;;;;;;;-4.23;83.41;101161.79;105898;1295;22677;-77
2023/02/13 00:53:41;;;;;;;88.20;28.70;;;;;;;-4.26;83.18;101163.58;105834;1296;23920;-76
2023/02/13 00:56:10;;;;;;;78.00;27.90;;;;;;;-4.27;83.56;101161.90;105980;1295;22536;-77
2023/02/13 00:58:38;;;;;;;90.50;29.20;;;;;;;-4.27;83.28;101159.64;106442;1295;22648;-79
2023/02/13 01:01:06;;;;;;;75.00;28.60;;;;;;;-4.31;82.73;101151.96;107823;1273;23915;-77
2023/02/13 01:03:37;;;;;;;97.00;33.90;;;;;;;-4.34;82.72;101150.17;107662;1295;22555;-77
2023/02/13 01:06:06;;;;;;;105.60;36.90;;;;;;;-4.35;83.42;101149.46;107572;1295;24232;-78
2023/02/13 01:08:38;;;;;;;88.00;34.40;;;;;;;-4.36;83.50;101148.88;107421;1295;22557;-77
2023/02/13 01:11:06;;;;;;;93.70;35.90;;;;;;;-4.41;82.66;101150.58;106429;1295;25246;-77
2023/02/13 01:13:36;;;;;;;101.70;37.00;;;;;;;-4.49;83.37;101145.81;106872;1295;25210;-77
2023/02/13 01:16:04;;;;;;;95.90;33.70;;;;;;;-4.53;83.98;101137.05;106086;1296;23018;-77
2023/02/13 01:18:32;;;;;;;93.50;31.50;;;;;;;-4.57;84.13;101132.92;105915;1296;22538;-77
2023/02/13 01:21:04;;;;;;;84.00;30.60;;;;;;;-4.61;83.41;101132.66;105910;1285;22855;-77
2023/02/13 01:23:35;;;;;;;81.80;29.60;;;;;;;-4.67;83.83;101129.70;105876;1295;25319;-79
2023/02/13 01:26:05;;;;;;;85.30;29.90;;;;;;;-4.73;83.83;101130.29;105873;1296;22683;-77
2023/02/13 01:28:34;;;;;;;74.70;28.40;;;;;;;-4.83;82.02;101129.80;106291;1295;22833;-77
2023/02/13 01:31:02;;;;;;;84.80;28.70;;;;;;;-4.92;82.40;101128.77;105905;1296;24212;-76
2023/02/13 01:33:31;;;;;;;79.30;29.30;;;;;;;-4.98;83.43;101125.02;105925;1296;23334;-77
2023/02/13 01:36:05;;;;;;;82.30;29.60;;;;;;;-5.03;84.23;101123.84;105900;1296;24057;-77
2023/02/13 01:38:33;;;;;;;79.70;29.30;;;;;;;-5.08;82.80;101126.87;106165;1296;22652;-77
2023/02/13 01:41:02;;;;;;;75.60;28.50;;;;;;;-5.11;83.43;101127.13;105922;1296;22664;-78
2023/02/13 01:43:53;;;;;;;74.00;27.50;;;;;;;-5.15;83.44;101126.71;105989;1296;26560;-76
2023/02/13 01:46:42;;;;;;;88.00;28.30;;;;;;;-5.20;83.88;101117.73;105909;1296;25416;-76
2023/02/13 01:49:24;;;;;;;82.90;29.10;;;;;;;-5.23;82.67;101123.61;105940;1296;22546;-76
2023/02/13 01:51:55;;;;;;;86.00;29.00;;;;;;;-5.26;83.38;101115.67;105884;1296;22563;-77
2023/02/13 01:54:29;;;;;;;80.50;28.20;;;;;;;-5.28;82.24;101112.73;105901;1296;24064;-76
2023/02/13 01:57:17;;;;;;;71.20;28.10;;;;;;;-5.30;84.37;101108.05;105956;1296;25362;-76
2023/02/13 01:59:50;;;;;;;80.90;28.40;;;;;;;-5.31;84.49;101111.87;105913;1296;23321;-75
2023/02/13 02:02:20;;;;;;;74.40;28.10;;;;;;;-5.31;85.10;101115.06;105923;1297;25246;-77
2023/02/13 02:04:50;;;;;;;76.80;28.70;;;;;;;-5.31;85.28;101107.33;106140;1296;22560;-75
2023/02/13 02:07:25;;;;;;;72.70;27.80;;;;;;;-5.31;85.18;101104.13;106234;1296;24527;-77
2023/02/13 02:10:07;;;;;;;82.90;30.40;;;;;;;-5.30;84.46;101101.30;104065;1305;545614;-76
2023/02/13 02:12:41;;;;;;;66.10;26.50;;;;;;;-5.35;84.63;101100.95;106456;1288;22585;-76
2023/02/13 02:15:11;;;;;;;83.50;27.60;;;;;;;-5.35;85.00;101099.78;106375;1288;23056;-75
2023/02/13 02:17:39;;;;;;;71.90;27.20;;;;;;;-5.33;84.79;101094.97;106671;1285;22597;-76
2023/02/13 02:20:31;;;;;;;88.60;30.30;;;;;;;-5.33;83.18;101097.38;106896;1281;22664;-76
2023/02/13 02:23:20;;;;;;;76.70;29.50;;;;;;;-5.32;83.60;101090.84;106476;1279;658678;-76
2023/02/13 02:26:18;;;;;;;84.30;29.90;;;;;;;-5.31;83.37;101087.55;107033;1279;26506;-77
2023/02/13 02:29:14;;;;;;;81.10;29.40;;;;;;;-5.32;82.17;101085.95;106928;1279;25291;-76
2023/02/13 02:32:07;;;;;;;76.00;26.90;;;;;;;-5.32;83.17;101088.14;107030;1270;22786;-77
2023/02/13 02:34:50;;;;;;;73.20;26.70;;;;;;;-5.31;82.96;101092.25;107073;1279;24324;-76
2023/02/13 02:37:37;;;;;;;79.40;27.70;;;;;;;-5.26;83.47;101091.44;106898;1279;24957;-76
2023/02/13 02:40:18;;;;;;;79.30;28.90;;;;;;;-5.22;83.38;101092.11;106973;1272;22516;-76
2023/02/13 02:43:11;;;;;;;76.30;29.30;;;;;;;-5.20;83.68;101096.64;106947;1280;22521;-76
2023/02/13 02:46:08;;;;;;;77.80;26.30;;;;;;;-5.13;83.87;101097.76;107006;1266;22537;-76
2023/02/13 02:51:53;;;;;;;66.60;26.60;;;;;;;-5.06;83.79;101100.95;106959;1269;22522;-76
2023/02/13 02:57:25;;;;;;;77.90;27.30;;;;;;;-5.10;83.28;101101.67;106900;1273;22535;-76
2023/02/13 03:14:35;;;;;;;144.60;51.80;;;;;;;-5.07;83.80;101128.96;106777;1280;22679;-76
2023/02/13 03:23:37;;;;;;;72.30;28.10;;;;;;;-5.04;83.32;101133.90;106358;1288;22570;-77
2023/02/13 03:26:44;;;;;;;82.50;29.60;;;;;;;-5.01;83.27;101143.12;106425;1289;22533;-76
2023/02/13 03:32:41;;;;;;;82.90;32.50;;;;;;;-4.95;83.36;101155.30;107019;1278;23913;-76
2023/02/13 03:38:31;;;;;;;84.20;29.10;;;;;;;-4.96;83.91;101143.77;106812;1280;25291;-76
2023/02/13 03:41:18;;;;;;;66.50;27.80;;;;;;;-4.94;83.83;101146.09;107386;1272;22520;-77
2023/02/13 03:44:07;;;;;;;82.80;29.70;;;;;;;-4.93;83.75;101146.85;107866;1273;25364;-75
2023/02/13 03:46:40;;;;;;;79.40;30.30;;;;;;;-4.88;83.72;101147.02;108043;1271;22542;-76
2023/02/13 03:53:09;;;;;;;92.10;33.80;;;;;;;-4.81;83.45;101159.89;106727;1280;22599;-76
2023/02/13 04:01:33;;;;;;;56.80;25.90;;;;;;;-4.85;82.33;101173.63;110047;1279;22427;-77
2023/02/13 04:04:21;;;;;;;63.80;26.10;;;;;;;-4.86;82.10;101179.14;110184;1275;22207;-77
2023/02/13 04:07:09;;;;;;;62.20;25.50;;;;;;;-4.87;81.89;101188.73;110476;1275;22258;-77
2023/02/13 04:09:41;;;;;;;82.70;30.40;;;;;;;-4.91;81.51;101195.39;107503;1275;23915;-76
2023/02/13 04:12:22;;;;;;;82.70;28.60;;;;;;;-4.99;81.38;101199.16;110400;1275;22240;-77
2023/02/13 04:15:03;;;;;;;76.80;27.60;;;;;;;-5.07;81.49;101202.23;110466;1275;23056;-77
2023/02/13 04:17:37;;;;;;;74.50;28.50;;;;;;;-5.09;81.71;101208.27;110462;1275;22198;-76
2023/02/13 04:20:09;;;;;;;86.20;29.80;;;;;;;-5.14;82.04;101209.26;109857;1275;22607;-77
2023/02/13 04:22:45;;;;;;;83.70;31.30;;;;;;;-5.19;82.31;101212.85;108776;1264;24253;-77
2023/02/13 04:25:16;;;;;;;71.70;27.60;;;;;;;-5.22;82.09;101213.10;110504;1263;22162;-78
2023/02/13 04:27:45;;;;;;;81.60;29.10;;;;;;;-5.27;81.82;101212.57;108904;1275;22530;-75
2023/02/13 04:30:19;;;;;;;74.10;28.00;;;;;;;-5.38;81.37;101211.83;107326;1275;22554;-77
2023/02/13 04:32:50;;;;;;;67.40;25.60;;;;;;;-5.50;81.08;101212.81;107194;1275;22560;-77
2023/02/13 04:35:22;;;;;;;77.40;27.20;;;;;;;-5.63;81.45;101219.05;107542;1275;23177;-76
2023/02/13 04:37:50;;;;;;;78.10;29.60;;;;;;;-5.70;82.37;101219.73;107452;1275;22490;-77
2023/02/13 04:40:24;;;;;;;72.90;27.90;;;;;;;-5.76;82.50;101218.98;107498;1275;22475;-76
2023/02/13 04:42:55;;;;;;;91.00;29.30;;;;;;;-5.88;82.12;101226.73;107403;1275;25681;-76
2023/02/13 04:45:23;;;;;;;91.20;31.50;;;;;;;-5.95;82.80;101228.24;107180;1276;24250;-76
2023/02/13 04:47:55;;;;;;;89.20;31.10;;;;;;;-5.99;83.49;101223.72;107194;1273;26609;-77
2023/02/13 04:50:33;;;;;;;67.70;24.30;;;;;;;-6.02;83.41;101226.52;107161;1276;24203;-76
2023/02/13 04:53:06;;;;;;;70.50;25.30;;;;;;;-6.07;83.53;101220.91;107307;1276;22533;-75
2023/02/13 04:55:35;;;;;;;74.30;28.70;;;;;;;-6.10;83.70;101220.86;107338;1276;24196;-76
2023/02/13 04:58:06;;;;;;;84.40;32.20;;;;;;;-6.11;83.54;101219.96;107184;1276;24390;-76
2023/02/13 05:00:37;;;;;;;79.40;32.40;;;;;;;-6.11;83.83;101221.95;107236;1276;23763;-76
2023/02/13 05:03:07;;;;;;;87.30;36.90;;;;;;;-6.09;83.76;101222.80;107262;1276;22662;-76
2023/02/13 05:05:39;;;;;;;117.10;39.90;;;;;;;-6.09;83.64;101224.52;109480;1276;23409;-77
2023/02/13 05:08:14;;;;;;;132.70;44.90;;;;;;;-6.06;83.72;101226.73;108377;1276;22527;-77
2023/02/13 05:10:48;;;;;;;100.00;39.20;;;;;;;-6.02;83.43;101233.13;107237;1276;22545;-76
2023/02/13 05:13:22;;;;;;;91.30;39.70;;;;;;;-5.97;83.98;101227.73;107178;1276;24206;-76
2023/02/13 05:15:54;;;;;;;79.00;33.90;;;;;;;-5.92;84.20;101230.48;107234;1276;25350;-76
2023/02/13 05:18:23;;;;;;;95.00;36.80;;;;;;;-5.86;84.11;101235.31;107246;1276;22550;-77
2023/02/13 05:23:42;;;;;;;94.90;33.70;;;;;;;-5.81;83.68;101242.26;107284;1276;23894;-76
2023/02/13 05:26:13;;;;;;;87.20;35.20;;;;;;;-5.80;83.27;101243.89;107294;1276;22516;-76
2023/02/13 05:31:32;;;;;;;88.00;35.50;;;;;;;-5.77;83.62;101247.40;107244;1276;23758;-77
2023/02/13 05:34:04;;;;;;;96.40;34.60;;;;;;;-5.76;83.25;101249.56;107277;1276;22579;-76
2023/02/13 05:36:35;;;;;;;88.80;34.70;;;;;;;-5.73;83.55;101246.59;107129;1276;22587;-77
2023/02/13 05:39:04;;;;;;;82.90;34.20;;;;;;;-5.68;83.73;101246.06;107327;1269;24231;-75
2023/02/13 05:41:38;;;;;;;83.80;33.80;;;;;;;-5.65;83.54;101246.28;107281;1275;23057;-76
2023/02/13 05:44:10;;;;;;;90.10;37.50;;;;;;;-5.65;83.17;101250.89;107425;1275;24985;-76
2023/02/13 05:46:48;;;;;;;96.10;36.60;;;;;;;-5.62;83.44;101251.59;107295;1275;23898;-76
2023/02/13 05:49:21;;;;;;;93.30;36.30;;;;;;;-5.58;83.61;101255.48;107357;1275;25334;-76
2023/02/13 05:51:52;;;;;;;82.40;36.90;;;;;;;-5.53;83.81;101257.16;107318;1275;25380;-76
2023/02/13 05:54:20;;;;;;;113.80;39.20;;;;;;;-5.49;83.90;101254.95;107283;1275;24255;-75
2023/02/13 05:56:49;;;;;;;101.70;38.50;;;;;;;-5.43;83.98;101259.64;107426;1264;22612;-75
2023/02/13 05:59:22;;;;;;;92.30;36.00;;;;;;;-5.36;84.14;101260.76;107321;1275;22730;-76
2023/02/13 06:01:54;;;;;;;91.10;34.00;;;;;;;-5.29;84.14;101258.61;107378;1275;22547;-76
2023/02/13 06:04:28;;;;;;;106.20;40.70;;;;;;;-5.23;83.72;101260.08;107438;1273;24391;-75
2023/02/13 06:06:59;;;;;;;119.90;46.80;;;;;;;-5.18;83.54;101256.32;107174;1273;22538;-76
2023/02/13 06:09:30;;;;;;;120.40;44.40;;;;;;;-5.16;83.07;101258.85;107151;1268;23174;-75
2023/02/13 06:12:01;;;;;;;;;;;;;;;-5.12;83.00;101257.61;107258;1280;27292;-76
2023/02/13 06:14:32;;;;;;;163.70;60.10;;;;;;;-5.11;82.82;101260.89;107120;1280;22533;-76
2023/02/13 06:17:06;;;;;;;131.70;52.50;;;;;;;-5.13;82.53;101264.50;107151;1275;22541;-76
2023/02/13 06:19:35;;;;;;;119.70;44.90;;;;;;;-5.17;82.32;101259.79;107207;1280;22580;-76
2023/02/13 06:22:07;;;;;;;112.50;38.90;;;;;;;-5.16;82.14;101266.61;107135;1280;25522;-75
2023/02/13 06:24:46;;;;;;;;;;;;;;;-5.17;82.13;101262.13;107119;1280;23463;-75
2023/02/13 06:27:14;;;;;;;95.50;34.90;;;;;;;-5.21;82.12;101263.78;107136;1280;25334;-74
2023/02/13 06:29:48;;;;;;;111.60;40.30;;;;;;;-5.22;82.18;101263.98;107182;1280;22695;-76
2023/02/13 06:32:18;;;;;;;119.10;39.60;;;;;;;-5.26;82.33;101257.61;107199;1275;24421;-76
2023/02/13 06:34:47;;;;;;;110.70;38.90;;;;;;;-5.30;82.33;101258.67;107207;1280;22633;-76
2023/02/13 06:37:18;;;;;;;102.60;38.70;;;;;;;-5.33;82.57;101254.37;107197;1280;24344;-76
2023/02/13 06:39:50;;;;;;;98.20;36.90;;;;;;;-5.36;83.13;101255.50;107193;1280;25170;-76
2023/02/13 06:42:21;;;;;;;112.60;39.90;;;;;;;-5.35;83.12;101257.42;107210;1275;25341;-76
2023/02/13 06:44:55;;;;;;;118.70;39.90;;;;;;;-5.37;83.28;101262.56;107191;1275;24213;-76
2023/02/13 06:47:32;;;;;;;96.80;34.80;;;;;;;-5.38;83.18;101260.78;107244;1273;23263;-76
2023/02/13 06:50:18;;;;;;;97.70;37.20;;;;;;;-5.41;82.59;101261.59;107395;1277;22775;-76
2023/02/13 06:52:56;;;;;;;91.20;33.30;;;;;;;-5.39;83.38;101260.89;107260;1280;25231;-76
2023/02/13 06:55:24;;;;;;;86.00;32.30;;;;;;;-5.37;83.51;101262.52;107187;1280;25246;-76
2023/02/13 06:57:56;;;;;;;84.10;30.50;;;;;;;-5.36;83.99;101262.83;107280;1277;23904;-76
2023/02/13 07:00:28;;;;;;;86.70;32.40;;;;;;;-5.34;83.53;101260.09;107289;1280;22859;-77
2023/02/13 07:03:05;;;;;;;82.90;32.00;;;;;;;-5.34;83.71;101259.74;107417;1280;22533;-76
2023/02/13 07:05:38;;;;;;;89.20;31.70;;;;;;;-5.31;83.62;101258.77;108192;1278;22393;-77
2023/02/13 07:08:10;;;;;;;83.20;32.80;;;;;;;-5.27;84.14;101264.34;109915;1275;22363;-77
2023/02/13 07:10:40;;;;;;;80.70;30.80;;;;;;;-5.22;83.90;101263.65;108306;1278;24255;-78
2023/02/13 07:13:14;;;;;;;93.90;33.60;;;;;;;-5.17;83.96;101260.45;107285;1281;22551;-76
2023/02/13 07:15:48;;;;;;;99.30;34.40;;;;;;;-5.10;84.31;101257.46;107529;1281;25448;-77
2023/02/13 07:18:20;;;;;;;113.40;37.90;;;;;;;-5.03;84.00;101257.40;107604;1278;23488;-77
2023/02/13 07:20:50;;;;;;;126.30;42.60;;;;;;;-5.01;83.82;101257.79;107937;1281;22560;-76
2023/02/13 07:23:22;;;;;;;114.40;40.80;;;;;;;-4.96;83.77;101252.17;107695;1278;22560;-77
2023/02/13 07:25:50;;;;;;;128.40;45.90;;;;;;;-4.93;83.43;101248.34;107333;1274;22570;-76
2023/02/13 07:28:22;;;;;;;152.60;49.80;;;;;;;-4.88;84.00;101239.91;107049;1281;22526;-77
2023/02/13 07:30:52;;;;;;;;;;;;;;;-4.80;83.76;101237.73;107057;1280;22597;-76
2023/02/13 07:33:26;;;;;;;125.10;45.50;;;;;;;-4.79;83.41;101236.14;107144;1275;22518;-76
2023/02/13 07:35:55;;;;;;;130.50;45.30;;;;;;;-4.75;83.86;101231.36;106958;1280;26042;-77
2023/02/13 07:38:23;;;;;;;129.30;43.50;;;;;;;-4.71;84.05;101234.48;107047;1281;22536;-76
2023/02/13 07:40:52;;;;;;;125.20;43.50;;;;;;;-4.69;83.43;101231.90;107262;1261;22523;-78
2023/02/13 07:43:23;;;;;;;119.40;43.70;;;;;;;-4.67;83.18;101233.75;107171;1281;24184;-76
2023/02/13 07:46:06;;;;;;;119.40;43.70;;;;;;;-4.64;84.09;101237.55;101075;1275;10003423;-76
2023/02/13 07:48:45;;;;;;;119.50;45.30;;;;;;;-4.56;83.18;101233.65;107255;1270;22790;-77
2023/02/13 07:51:15;;;;;;;136.60;47.30;;;;;;;-4.52;83.00;101229.86;107358;1275;22562;-77
2023/02/13 07:53:46;;;;;;;121.80;46.20;;;;;;;-4.48;84.21;101224.25;107037;1259;24078;-77
2023/02/13 07:56:19;;;;;;;148.30;48.20;;;;;;;-4.41;84.49;101221.31;107028;1271;22568;-76
2023/02/13 07:58:50;;;;;;;140.20;48.00;;;;;;;-4.34;84.13;101227.24;107109;1274;22523;-76
2023/02/13 08:01:22;;;;;;;128.40;50.40;;;;;;;-4.28;84.20;101227.85;106977;1277;22621;-76
2023/02/13 08:03:50;;;;;;;132.90;48.30;;;;;;;-4.22;83.22;101226.55;107096;1274;24226;-76
2023/02/13 08:06:24;;;;;;;132.60;46.70;;;;;;;-4.16;84.15;101226.11;108646;1282;23264;-79
2023/02/13 08:11:52;;;;;;;145.20;48.00;;;;;;;-4.09;84.86;101218.98;109868;1278;22203;-77
2023/02/13 08:11:58;;;;;;;124.90;44.50;;;;;;;-3.99;85.09;101220.10;109819;1274;22224;-76
2023/02/13 08:14:31;;;;;;;133.60;47.30;;;;;;;-3.92;85.08;101208.27;109825;1281;22233;-76
2023/02/13 08:17:00;;;;;;;129.40;48.30;;;;;;;-3.80;84.90;101210.23;107935;1282;22546;-77
2023/02/13 08:19:29;;;;;;;127.80;48.50;;;;;;;-3.69;84.85;101202.78;107044;1274;24223;-77
2023/02/13 08:22:00;;;;;;;130.90;48.00;;;;;;;-3.59;85.02;101196.99;106978;1281;23950;-75
2023/02/13 08:24:31;;;;;;;121.60;46.10;;;;;;;-3.48;85.10;101192.62;106952;1278;22735;-76
2023/02/13 08:26:59;;;;;;;129.00;48.40;;;;;;;-3.36;84.89;101196.30;107080;1278;22598;-76
2023/02/13 08:29:36;;;;;;;145.50;50.90;;;;;;;-3.25;84.98;101194.79;107241;1281;22559;-77
2023/02/13 08:32:05;;;;;;;133.00;47.00;;;;;;;-3.15;84.86;101192.05;107360;1275;25691;-75
2023/02/13 08:34:34;;;;;;;134.50;49.60;;;;;;;-3.08;84.19;101189.11;107273;1275;25288;-77
2023/02/13 08:37:10;;;;;;;135.20;52.00;;;;;;;-3.00;83.98;101191.82;107219;1279;26529;-76
2023/02/13 08:39:42;;;;;;;131.50;47.60;;;;;;;-2.91;84.26;101193.58;107101;1276;22548;-78
2023/02/13 08:42:14;;;;;;;129.20;46.10;;;;;;;-2.81;83.87;101184.66;107115;1281;25288;-78
2023/02/13 08:44:46;;;;;;;135.80;49.80;;;;;;;-2.72;82.56;101180.45;107051;1281;23079;-77
2023/02/13 08:47:17;;;;;;;124.00;47.20;;;;;;;-2.66;83.42;101177.75;107058;1281;25417;-76
2023/02/13 08:49:49;;;;;;;127.70;49.10;;;;;;;-2.56;83.78;101175.64;107093;1278;24199;-76
2023/02/13 08:52:21;;;;;;;99.90;38.90;;;;;;;-2.47;83.57;101171.98;107088;1282;22659;-77
2023/02/13 08:54:49;;;;;;;113.40;44.00;;;;;;;-2.36;82.42;101167.23;107091;1275;22517;-77
2023/02/13 08:57:20;;;;;;;125.50;46.70;;;;;;;-2.31;82.06;101164.60;107144;1278;22906;-76
2023/02/13 08:59:54;;;;;;;120.90;43.00;;;;;;;-2.27;82.69;101160.23;107013;1267;22746;-77
2023/02/13 09:02:23;;;;;;;105.40;40.40;;;;;;;-2.18;82.81;101161.64;107077;1278;22560;-77
2023/02/13 09:04:52;;;;;;;107.60;39.70;;;;;;;-2.10;82.07;101161.94;107051;1281;24193;-77
2023/02/13 09:07:27;;;;;;;97.00;36.90;;;;;;;-2.04;82.01;101167.92;107063;1278;22658;-76
2023/02/13 09:09:56;;;;;;;93.20;36.00;;;;;;;-1.95;82.13;101164.01;107029;1269;25521;-77
2023/02/13 09:12:25;;;;;;;82.00;30.40;;;;;;;-1.88;81.42;101164.59;107001;1281;22585;-77
2023/02/13 09:14:55;;;;;;;71.70;29.20;;;;;;;-1.81;81.72;101159.72;107158;1275;22800;-76
2023/02/13 09:17:24;;;;;;;74.50;29.20;;;;;;;-1.69;81.85;101162.79;107122;1281;22561;-77
2023/02/13 09:19:52;;;;;;;81.10;29.80;;;;;;;-1.60;82.09;101156.85;107115;1279;22578;-76
2023/02/13 09:22:23;;;;;;;83.30;28.90;;;;;;;-1.43;82.16;101160.66;107277;1282;22649;-76
2023/02/13 09:24:52;;;;;;;67.90;27.40;;;;;;;-1.27;82.26;101157.00;107177;1271;22528;-77
2023/02/13 09:27:20;;;;;;;75.30;28.20;;;;;;;-1.12;82.50;101160.20;107157;1278;22562;-78
2023/02/13 09:29:51;;;;;;;83.40;31.50;;;;;;;-1.01;82.55;101157.23;106970;1275;24074;-77
2023/02/13 09:32:23;;;;;;;80.30;30.70;;;;;;;-0.86;82.73;101157.86;107171;1280;22570;-77
2023/02/13 09:35:05;;;;;;;76.90;30.10;;;;;;;-0.74;82.77;101158.17;107083;1281;25297;-78
2023/02/13 09:37:40;;;;;;;80.40;32.40;;;;;;;-0.62;82.54;101156.44;107105;1281;24293;-77
2023/02/13 09:40:41;;;;;;;69.80;27.40;;;;;;;-0.48;82.54;101159.71;107171;1270;24250;-77
2023/02/13 09:43:24;;;;;;;64.30;25.20;;;;;;;-0.36;81.57;101151.81;107202;1275;24285;-77
2023/02/13 09:46:10;;;;;;;46.70;19.00;;;;;;;-0.26;80.68;101149.96;109838;1279;22202;-76
2023/02/13 09:48:44;;;;;;;51.70;20.50;;;;;;;-0.17;79.82;101143.20;109637;1281;22701;-78
2023/02/13 09:51:18;;;;;;;60.30;23.00;;;;;;;-0.14;78.12;101142.02;107268;1272;22532;-76
2023/02/13 09:53:54;;;;;;;51.20;21.20;;;;;;;-0.07;79.24;101146.80;107139;1279;22578;-77
2023/02/13 09:57:06;;;;;;;45.30;20.80;;;;;;;-0.02;77.85;101148.06;107023;1282;24216;-77
2023/02/13 10:00:17;;;;;;;57.40;21.60;;;;;;;0.04;76.92;101146.34;107053;1281;22556;-77
2023/02/13 10:03:22;;;;;;;56.30;22.20;;;;;;;0.14;77.81;101132.20;107270;1276;22588;-77
2023/02/13 10:06:13;;;;;;;55.00;23.80;;;;;;;0.23;78.20;101129.20;108172;1278;22343;-77
2023/02/13 10:09:06;;;;;;;60.30;24.40;;;;;;;0.32;78.36;101123.02;109859;1278;22335;-76
2023/02/13 10:12:17;;;;;;;63.50;23.20;;;;;;;0.43;78.18;101122.31;107943;1276;22571;-78
2023/02/13 10:15:52;;;;;;;61.10;22.60;;;;;;;0.56;77.30;101112.75;107241;1280;25450;-75
2023/02/13 10:18:36;;;;;;;67.30;22.20;;;;;;;0.72;77.63;101105.77;107252;1281;22606;-76
2023/02/13 10:21:23;;;;;;;54.50;23.10;;;;;;;0.84;77.59;101106.33;107148;1275;23256;-76
2023/02/13 10:24:09;;;;;;;57.50;23.20;;;;;;;0.93;77.64;101105.23;107229;1280;24237;-76
2023/02/13 10:26:48;;;;;;;51.60;22.50;;;;;;;1.04;77.76;101100.60;107119;1281;25425;-77
2023/02/13 10:32:31;;;;;;;50.80;22.00;;;;;;;1.22;75.35;101103.29;107254;1281;22584;-78
2023/02/13 10:35:03;;;;;;;58.50;23.70;;;;;;;1.32;76.82;101103.90;107044;1281;22552;-77
2023/02/13 10:37:31;;;;;;;57.50;22.30;;;;;;;1.34;74.44;101101.97;107188;1275;22685;-76
2023/02/13 10:40:00;;;;;;;55.50;23.60;;;;;;;1.41;75.36;101098.14;107236;1281;25415;-78
2023/02/13 10:42:59;;;;;;;55.80;23.90;;;;;;;1.47;75.37;101098.74;107195;1278;22553;-78
2023/02/13 10:46:13;;;;;;;59.10;23.20;;;;;;;1.59;75.68;101094.13;107159;1275;22530;-77
2023/02/13 10:48:56;;;;;;;57.70;24.00;;;;;;;1.73;74.82;101085.72;106692;1284;24245;-77
2023/02/13 10:51:59;;;;;;;60.70;23.80;;;;;;;1.85;75.24;101081.06;107221;1281;24243;-77
2023/02/13 10:54:58;;;;;;;60.70;25.00;;;;;;;1.98;74.95;101076.49;107363;1281;24207;-77
2023/02/13 10:58:08;;;;;;;62.90;23.80;;;;;;;2.12;74.01;101075.67;107312;1275;22654;-77
2023/02/13 11:01:07;;;;;;;63.10;23.90;;;;;;;2.23;72.53;101075.96;107434;1275;23318;-76
2023/02/13 11:03:41;;;;;;;51.00;22.20;;;;;;;2.37;74.36;101072.42;107224;1276;25566;-76
2023/02/13 11:06:23;;;;;;;58.00;24.80;;;;;;;2.48;73.05;101074.20;108064;1281;22554;-76
2023/02/13 11:08:54;;;;;;;54.90;23.30;;;;;;;2.60;73.07;101067.33;107041;1276;23786;-77
2023/02/13 11:11:32;;;;;;;61.20;25.00;;;;;;;2.77;73.90;101067.45;106907;1277;23368;-77
2023/02/13 11:14:24;;;;;;;57.10;23.70;;;;;;;2.92;72.66;101062.71;107070;1281;22724;-76
2023/02/13 11:16:57;;;;;;;62.60;25.60;;;;;;;3.05;72.58;101057.54;107213;1281;24261;-76
2023/02/13 11:19:26;;;;;;;54.10;23.40;;;;;;;3.18;71.90;101056.64;107084;1279;22639;-77
2023/02/13 11:22:10;;;;;;;59.40;24.10;;;;;;;3.30;71.68;101051.94;107068;1281;22581;-79
2023/02/13 11:24:41;;;;;;;63.60;25.50;;;;;;;3.42;68.33;101056.44;107124;1275;24234;-76
2023/02/13 11:27:12;;;;;;;62.20;25.80;;;;;;;3.54;70.63;101049.34;107132;1281;24723;-78
2023/02/13 11:29:52;;;;;;;56.40;24.00;;;;;;;3.63;69.73;101047.60;107118;1275;23158;-77
2023/02/13 11:32:25;;;;;;;60.50;23.70;;;;;;;3.70;67.58;101046.96;107142;1281;22584;-78
2023/02/13 11:34:54;;;;;;;56.60;23.40;;;;;;;3.77;68.85;101042.24;108884;1275;24098;-77
2023/02/13 11:37:28;;;;;;;55.70;24.00;;;;;;;3.85;66.10;101038.20;107036;1279;25476;-77
2023/02/13 11:39:59;;;;;;;53.70;22.90;;;;;;;3.97;67.48;101032.44;109727;1281;22331;-76
2023/02/13 11:42:31;;;;;;;68.00;25.60;;;;;;;4.13;67.98;101033.27;107508;1281;22648;-77
2023/02/13 11:45:19;;;;;;;58.30;25.50;;;;;;;4.29;66.66;101036.18;107030;1275;22669;-77
2023/02/13 11:47:50;;;;;;;58.50;23.20;;;;;;;4.49;67.20;101032.88;107022;1266;22824;-77
2023/02/13 11:50:22;;;;;;;70.20;27.80;;;;;;;4.69;66.93;101031.07;106992;1275;25284;-77
2023/02/13 11:53:24;;;;;;;55.20;24.20;;;;;;;4.90;68.58;101028.57;107080;1275;22648;-76
2023/02/13 11:56:19;;;;;;;56.80;24.20;;;;;;;5.16;68.16;101024.15;106987;1278;22545;-77
2023/02/13 11:59:00;;;;;;;60.20;24.40;;;;;;;5.29;67.29;101022.29;107024;1281;25233;-78
2023/02/13 12:01:29;;;;;;;48.60;21.40;;;;;;;5.50;65.80;101019.23;107086;1275;22511;-77
2023/02/13 12:04:17;;;;;;;64.10;26.40;;;;;;;5.74;66.35;101011.75;107151;1277;22709;-77
2023/02/13 12:07:14;;;;;;;55.60;23.70;;;;;;;6.00;66.43;101011.56;108876;1275;22377;-79
2023/02/13 12:09:46;;;;;;;71.30;27.30;;;;;;;6.27;66.13;101006.34;109864;1275;22443;-78
2023/02/13 12:12:28;;;;;;;59.00;25.00;;;;;;;6.46;67.07;101003.87;107785;1282;22648;-78
2023/02/13 12:14:57;;;;;;;57.30;23.10;;;;;;;6.64;62.80;100997.86;107062;1280;23937;-78
2023/02/13 12:17:28;;;;;;;59.40;22.70;;;;;;;6.88;65.32;100990.78;107141;1276;25406;-77
2023/02/13 12:20:03;;;;;;;60.30;27.50;;;;;;;7.05;59.79;100984.73;107000;1275;26209;-77
2023/02/13 12:22:44;;;;;;;47.70;22.30;;;;;;;7.24;58.93;100981.33;107033;1282;25284;-76
2023/02/13 12:25:42;;;;;;;46.90;21.40;;;;;;;7.45;59.50;100979.96;107082;1275;26857;-78
2023/02/13 12:28:27;;;;;;;66.60;27.10;;;;;;;7.70;60.82;100976.42;107013;1275;25295;-78
2023/02/13 12:31:25;;;;;;;50.10;22.10;;;;;;;7.81;60.21;100969.53;107090;1275;22576;-78
2023/02/13 12:34:49;;;;;;;44.80;21.50;;;;;;;7.88;55.81;100968.27;106885;1280;22649;-78